sensor_id;sensor_type;location;lat;lon;timestamp;P1;durP1;ratioP1;P2;durP2;ratioP2
23416;SDS011;11881;42.432;25.632;2024-02-15T00:01:30;5.77;;;3.97;;
23416;SDS011;11881;42.432;25.632;2024-02-15T00:03:56;7.10;;;3.90;;
23416;SDS011;11881;42.432;25.632;2024-02-15T00:06:22;7.03;;;3.90;;
23416;SDS011;11881;42.432;25.632;2024-02-15T00:08:48;7.47;;;4.00;;
23416;SDS011;11881;42.432;25.632;2024-02-15T00:11:15;6.03;;;4.10;;
23416;SDS011;11881;42.432;25.632;2024-02-15T00:13:40;5.17;;;3.77;;
23416;SDS011;11881;42.432;25.632;2024-02-15T00:16:06;5.53;;;3.47;;
23416;SDS011;11881;42.432;25.632;2024-02-15T00:18:31;5.83;;;3.83;;
23416;SDS011;11881;42.432;25.632;2024-02-15T00:20:57;4.30;;;3.23;;
23416;SDS011;11881;42.432;25.632;2024-02-15T00:23:25;6.23;;;3.33;;
23416;SDS011;11881;42.432;25.632;2024-02-15T00:25:50;3.47;;;2.97;;
23416;SDS011;11881;42.432;25.632;2024-02-15T00:28:16;4.93;;;2.67;;
23416;SDS011;11881;42.432;25.632;2024-02-15T00:30:41;3.30;;;2.67;;
23416;SDS011;11881;42.432;25.632;2024-02-15T00:33:07;5.57;;;2.40;;
23416;SDS011;11881;42.432;25.632;2024-02-15T00:35:32;4.87;;;2.67;;
23416;SDS011;11881;42.432;25.632;2024-02-15T00:37:58;3.07;;;2.60;;
23416;SDS011;11881;42.432;25.632;2024-02-15T00:40:23;5.00;;;2.90;;
23416;SDS011;11881;42.432;25.632;2024-02-15T00:42:49;3.27;;;2.63;;
23416;SDS011;11881;42.432;25.632;2024-02-15T00:45:14;3.83;;;3.10;;
23416;SDS011;11881;42.432;25.632;2024-02-15T00:47:40;3.07;;;2.50;;
23416;SDS011;11881;42.432;25.632;2024-02-15T00:50:07;5.03;;;2.60;;
23416;SDS011;11881;42.432;25.632;2024-02-15T00:52:34;3.90;;;2.57;;
23416;SDS011;11881;42.432;25.632;2024-02-15T00:54:59;3.63;;;2.70;;
23416;SDS011;11881;42.432;25.632;2024-02-15T00:57:25;4.50;;;2.80;;
23416;SDS011;11881;42.432;25.632;2024-02-15T00:59:50;2.77;;;2.57;;
23416;SDS011;11881;42.432;25.632;2024-02-15T01:02:17;3.10;;;2.77;;
23416;SDS011;11881;42.432;25.632;2024-02-15T01:04:43;3.80;;;2.73;;
23416;SDS011;11881;42.432;25.632;2024-02-15T01:07:10;3.77;;;2.53;;
23416;SDS011;11881;42.432;25.632;2024-02-15T01:09:36;3.07;;;2.53;;
23416;SDS011;11881;42.432;25.632;2024-02-15T01:12:01;4.30;;;3.10;;
23416;SDS011;11881;42.432;25.632;2024-02-15T01:14:29;4.70;;;3.30;;
23416;SDS011;11881;42.432;25.632;2024-02-15T01:16:55;5.40;;;3.47;;
23416;SDS011;11881;42.432;25.632;2024-02-15T01:19:22;3.50;;;3.07;;
23416;SDS011;11881;42.432;25.632;2024-02-15T01:21:47;5.07;;;3.10;;
23416;SDS011;11881;42.432;25.632;2024-02-15T01:24:13;4.07;;;3.47;;
23416;SDS011;11881;42.432;25.632;2024-02-15T01:26:38;6.60;;;3.70;;
23416;SDS011;11881;42.432;25.632;2024-02-15T01:29:04;3.60;;;3.30;;
23416;SDS011;11881;42.432;25.632;2024-02-15T01:31:29;4.17;;;3.57;;
23416;SDS011;11881;42.432;25.632;2024-02-15T01:33:55;5.07;;;3.77;;
23416;SDS011;11881;42.432;25.632;2024-02-15T01:36:21;5.00;;;3.47;;
23416;SDS011;11881;42.432;25.632;2024-02-15T01:38:46;4.50;;;3.50;;
23416;SDS011;11881;42.432;25.632;2024-02-15T01:41:12;4.57;;;3.63;;
23416;SDS011;11881;42.432;25.632;2024-02-15T01:43:37;5.27;;;3.43;;
23416;SDS011;11881;42.432;25.632;2024-02-15T01:46:09;6.53;;;4.00;;
23416;SDS011;11881;42.432;25.632;2024-02-15T01:48:35;5.63;;;3.73;;
23416;SDS011;11881;42.432;25.632;2024-02-15T01:51:02;8.60;;;3.80;;
23416;SDS011;11881;42.432;25.632;2024-02-15T01:53:29;5.30;;;4.07;;
23416;SDS011;11881;42.432;25.632;2024-02-15T01:55:55;5.07;;;3.77;;
23416;SDS011;11881;42.432;25.632;2024-02-15T01:58:23;6.53;;;3.40;;
23416;SDS011;11881;42.432;25.632;2024-02-15T02:00:52;4.83;;;3.50;;
23416;SDS011;11881;42.432;25.632;2024-02-15T02:03:20;5.30;;;3.70;;
23416;SDS011;11881;42.432;25.632;2024-02-15T02:05:46;5.90;;;3.60;;
23416;SDS011;11881;42.432;25.632;2024-02-15T02:08:12;7.77;;;3.87;;
23416;SDS011;11881;42.432;25.632;2024-02-15T02:10:38;4.73;;;3.50;;
23416;SDS011;11881;42.432;25.632;2024-02-15T02:13:04;5.93;;;3.50;;
23416;SDS011;11881;42.432;25.632;2024-02-15T02:15:33;3.73;;;3.27;;
23416;SDS011;11881;42.432;25.632;2024-02-15T02:18:02;3.90;;;3.10;;
23416;SDS011;11881;42.432;25.632;2024-02-15T02:20:31;6.43;;;3.63;;
23416;SDS011;11881;42.432;25.632;2024-02-15T02:23:14;5.23;;;3.80;;
23416;SDS011;11881;42.432;25.632;2024-02-15T02:25:43;5.93;;;3.83;;
23416;SDS011;11881;42.432;25.632;2024-02-15T02:28:11;4.30;;;3.30;;
23416;SDS011;11881;42.432;25.632;2024-02-15T02:30:37;7.27;;;3.80;;
23416;SDS011;11881;42.432;25.632;2024-02-15T02:33:05;4.90;;;3.90;;
23416;SDS011;11881;42.432;25.632;2024-02-15T02:35:32;6.03;;;3.93;;
23416;SDS011;11881;42.432;25.632;2024-02-15T02:37:58;7.93;;;4.53;;
23416;SDS011;11881;42.432;25.632;2024-02-15T02:40:23;5.63;;;4.10;;
23416;SDS011;11881;42.432;25.632;2024-02-15T02:42:53;6.30;;;3.70;;
23416;SDS011;11881;42.432;25.632;2024-02-15T02:45:21;5.07;;;4.00;;
23416;SDS011;11881;42.432;25.632;2024-02-15T02:47:50;4.63;;;4.07;;
23416;SDS011;11881;42.432;25.632;2024-02-15T02:50:16;6.20;;;4.10;;
23416;SDS011;11881;42.432;25.632;2024-02-15T02:52:42;4.90;;;4.20;;
23416;SDS011;11881;42.432;25.632;2024-02-15T02:55:09;5.77;;;4.03;;
23416;SDS011;11881;42.432;25.632;2024-02-15T02:57:36;5.47;;;3.57;;
23416;SDS011;11881;42.432;25.632;2024-02-15T03:00:05;5.00;;;3.97;;
23416;SDS011;11881;42.432;25.632;2024-02-15T03:02:40;4.60;;;3.97;;
23416;SDS011;11881;42.432;25.632;2024-02-15T03:05:07;7.73;;;3.90;;
23416;SDS011;11881;42.432;25.632;2024-02-15T03:07:33;6.77;;;3.80;;
23416;SDS011;11881;42.432;25.632;2024-02-15T03:10:00;8.07;;;3.97;;
23416;SDS011;11881;42.432;25.632;2024-02-15T03:12:26;6.17;;;4.30;;
23416;SDS011;11881;42.432;25.632;2024-02-15T03:14:52;7.43;;;3.80;;
23416;SDS011;11881;42.432;25.632;2024-02-15T03:17:17;10.83;;;5.20;;
23416;SDS011;11881;42.432;25.632;2024-02-15T03:19:43;18.03;;;7.30;;
23416;SDS011;11881;42.432;25.632;2024-02-15T03:22:08;15.70;;;6.03;;
23416;SDS011;11881;42.432;25.632;2024-02-15T03:24:34;11.43;;;6.07;;
23416;SDS011;11881;42.432;25.632;2024-02-15T03:26:59;12.53;;;5.70;;
23416;SDS011;11881;42.432;25.632;2024-02-15T03:29:25;12.73;;;5.87;;
23416;SDS011;11881;42.432;25.632;2024-02-15T03:31:50;9.27;;;4.83;;
23416;SDS011;11881;42.432;25.632;2024-02-15T03:34:18;10.43;;;4.87;;
23416;SDS011;11881;42.432;25.632;2024-02-15T03:36:46;7.73;;;4.63;;
23416;SDS011;11881;42.432;25.632;2024-02-15T03:39:16;6.43;;;4.63;;
23416;SDS011;11881;42.432;25.632;2024-02-15T03:41:42;6.73;;;4.60;;
23416;SDS011;11881;42.432;25.632;2024-02-15T03:44:11;7.53;;;4.53;;
23416;SDS011;11881;42.432;25.632;2024-02-15T03:46:37;6.33;;;4.47;;
23416;SDS011;11881;42.432;25.632;2024-02-15T03:49:02;6.83;;;4.13;;
23416;SDS011;11881;42.432;25.632;2024-02-15T03:51:28;11.43;;;5.17;;
23416;SDS011;11881;42.432;25.632;2024-02-15T03:53:54;7.53;;;4.70;;
23416;SDS011;11881;42.432;25.632;2024-02-15T03:56:19;7.93;;;5.17;;
23416;SDS011;11881;42.432;25.632;2024-02-15T03:58:48;7.83;;;5.57;;
23416;SDS011;11881;42.432;25.632;2024-02-15T04:01:15;8.93;;;5.90;;
23416;SDS011;11881;42.432;25.632;2024-02-15T04:03:41;11.00;;;5.80;;
23416;SDS011;11881;42.432;25.632;2024-02-15T04:06:07;12.30;;;6.13;;
23416;SDS011;11881;42.432;25.632;2024-02-15T04:08:32;7.27;;;5.50;;
23416;SDS011;11881;42.432;25.632;2024-02-15T04:10:58;9.70;;;5.53;;
23416;SDS011;11881;42.432;25.632;2024-02-15T04:13:24;9.97;;;5.17;;
23416;SDS011;11881;42.432;25.632;2024-02-15T04:15:50;7.73;;;5.07;;
23416;SDS011;11881;42.432;25.632;2024-02-15T04:18:18;7.87;;;5.20;;
23416;SDS011;11881;42.432;25.632;2024-02-15T04:20:44;9.17;;;4.93;;
23416;SDS011;11881;42.432;25.632;2024-02-15T04:23:11;7.50;;;4.87;;
23416;SDS011;11881;42.432;25.632;2024-02-15T04:25:37;7.10;;;4.83;;
23416;SDS011;11881;42.432;25.632;2024-02-15T04:28:04;8.90;;;5.20;;
23416;SDS011;11881;42.432;25.632;2024-02-15T04:30:30;6.97;;;4.93;;
23416;SDS011;11881;42.432;25.632;2024-02-15T04:32:56;10.37;;;5.30;;
23416;SDS011;11881;42.432;25.632;2024-02-15T04:35:21;9.80;;;5.27;;
23416;SDS011;11881;42.432;25.632;2024-02-15T04:37:47;8.93;;;5.50;;
23416;SDS011;11881;42.432;25.632;2024-02-15T04:40:14;7.10;;;4.90;;
23416;SDS011;11881;42.432;25.632;2024-02-15T04:42:40;6.23;;;4.90;;
23416;SDS011;11881;42.432;25.632;2024-02-15T04:45:08;11.67;;;7.20;;
23416;SDS011;11881;42.432;25.632;2024-02-15T04:47:35;10.00;;;6.37;;
23416;SDS011;11881;42.432;25.632;2024-02-15T04:50:01;9.00;;;5.90;;
23416;SDS011;11881;42.432;25.632;2024-02-15T04:52:27;8.47;;;5.47;;
23416;SDS011;11881;42.432;25.632;2024-02-15T04:54:52;7.50;;;5.40;;
23416;SDS011;11881;42.432;25.632;2024-02-15T04:57:20;8.03;;;4.70;;
23416;SDS011;11881;42.432;25.632;2024-02-15T04:59:45;9.20;;;5.17;;
23416;SDS011;11881;42.432;25.632;2024-02-15T05:02:13;8.97;;;5.13;;
23416;SDS011;11881;42.432;25.632;2024-02-15T05:04:39;10.13;;;4.83;;
23416;SDS011;11881;42.432;25.632;2024-02-15T05:07:07;7.97;;;4.97;;
23416;SDS011;11881;42.432;25.632;2024-02-15T05:09:33;7.57;;;4.90;;
23416;SDS011;11881;42.432;25.632;2024-02-15T05:11:59;7.93;;;5.30;;
23416;SDS011;11881;42.432;25.632;2024-02-15T05:14:27;7.47;;;5.23;;
23416;SDS011;11881;42.432;25.632;2024-02-15T05:16:56;8.17;;;5.10;;
23416;SDS011;11881;42.432;25.632;2024-02-15T05:19:21;9.70;;;4.87;;
23416;SDS011;11881;42.432;25.632;2024-02-15T05:21:47;7.43;;;5.17;;
23416;SDS011;11881;42.432;25.632;2024-02-15T05:24:13;6.57;;;5.10;;
23416;SDS011;11881;42.432;25.632;2024-02-15T05:26:40;7.00;;;5.00;;
23416;SDS011;11881;42.432;25.632;2024-02-15T05:29:11;10.67;;;5.40;;
23416;SDS011;11881;42.432;25.632;2024-02-15T05:31:37;5.33;;;4.83;;
23416;SDS011;11881;42.432;25.632;2024-02-15T05:34:05;8.53;;;5.10;;
23416;SDS011;11881;42.432;25.632;2024-02-15T05:36:33;5.67;;;4.80;;
23416;SDS011;11881;42.432;25.632;2024-02-15T05:38:59;7.60;;;4.63;;
23416;SDS011;11881;42.432;25.632;2024-02-15T05:41:25;8.47;;;4.70;;
23416;SDS011;11881;42.432;25.632;2024-02-15T05:43:50;9.57;;;4.93;;
23416;SDS011;11881;42.432;25.632;2024-02-15T05:46:19;8.83;;;5.20;;
23416;SDS011;11881;42.432;25.632;2024-02-15T05:48:48;9.97;;;5.23;;
23416;SDS011;11881;42.432;25.632;2024-02-15T05:51:14;11.63;;;5.40;;
23416;SDS011;11881;42.432;25.632;2024-02-15T05:53:40;14.87;;;7.03;;
23416;SDS011;11881;42.432;25.632;2024-02-15T05:56:06;19.73;;;7.50;;
23416;SDS011;11881;42.432;25.632;2024-02-15T05:58:33;19.30;;;7.60;;
23416;SDS011;11881;42.432;25.632;2024-02-15T06:00:59;25.10;;;8.60;;
23416;SDS011;11881;42.432;25.632;2024-02-15T06:03:30;12.60;;;7.47;;
23416;SDS011;11881;42.432;25.632;2024-02-15T06:05:59;16.03;;;7.50;;
23416;SDS011;11881;42.432;25.632;2024-02-15T06:08:30;13.27;;;6.57;;
23416;SDS011;11881;42.432;25.632;2024-02-15T06:10:55;10.23;;;6.43;;
23416;SDS011;11881;42.432;25.632;2024-02-15T06:13:21;12.53;;;6.57;;
23416;SDS011;11881;42.432;25.632;2024-02-15T06:15:48;17.83;;;8.03;;
23416;SDS011;11881;42.432;25.632;2024-02-15T06:18:24;26.17;;;8.77;;
23416;SDS011;11881;42.432;25.632;2024-02-15T06:20:52;18.03;;;8.07;;
23416;SDS011;11881;42.432;25.632;2024-02-15T06:23:18;20.00;;;8.37;;
23416;SDS011;11881;42.432;25.632;2024-02-15T06:25:45;20.17;;;8.13;;
23416;SDS011;11881;42.432;25.632;2024-02-15T06:28:12;22.03;;;7.87;;
23416;SDS011;11881;42.432;25.632;2024-02-15T06:30:44;20.83;;;8.13;;
23416;SDS011;11881;42.432;25.632;2024-02-15T06:33:31;15.77;;;8.47;;
23416;SDS011;11881;42.432;25.632;2024-02-15T06:36:15;14.87;;;8.53;;
23416;SDS011;11881;42.432;25.632;2024-02-15T06:38:59;14.57;;;8.37;;
23416;SDS011;11881;42.432;25.632;2024-02-15T06:41:43;17.60;;;7.30;;
23416;SDS011;11881;42.432;25.632;2024-02-15T06:44:08;13.67;;;7.23;;
23416;SDS011;11881;42.432;25.632;2024-02-15T06:46:34;16.50;;;7.77;;
23416;SDS011;11881;42.432;25.632;2024-02-15T06:49:00;17.73;;;9.40;;
23416;SDS011;11881;42.432;25.632;2024-02-15T06:51:25;23.20;;;9.23;;
23416;SDS011;11881;42.432;25.632;2024-02-15T06:53:51;22.53;;;9.97;;
23416;SDS011;11881;42.432;25.632;2024-02-15T06:56:20;21.80;;;9.50;;
23416;SDS011;11881;42.432;25.632;2024-02-15T06:58:46;18.93;;;9.30;;
23416;SDS011;11881;42.432;25.632;2024-02-15T07:01:13;26.77;;;9.67;;
23416;SDS011;11881;42.432;25.632;2024-02-15T07:03:41;19.67;;;9.00;;
23416;SDS011;11881;42.432;25.632;2024-02-15T07:06:09;22.53;;;9.30;;
23416;SDS011;11881;42.432;25.632;2024-02-15T07:08:34;20.80;;;9.70;;
23416;SDS011;11881;42.432;25.632;2024-02-15T07:11:00;35.87;;;11.83;;
23416;SDS011;11881;42.432;25.632;2024-02-15T07:13:27;38.83;;;14.47;;
23416;SDS011;11881;42.432;25.632;2024-02-15T07:15:53;45.17;;;15.97;;
23416;SDS011;11881;42.432;25.632;2024-02-15T07:18:18;47.33;;;17.27;;
23416;SDS011;11881;42.432;25.632;2024-02-15T07:20:47;47.20;;;17.10;;
23416;SDS011;11881;42.432;25.632;2024-02-15T07:23:13;43.50;;;15.80;;
23416;SDS011;11881;42.432;25.632;2024-02-15T07:25:39;37.37;;;13.70;;
23416;SDS011;11881;42.432;25.632;2024-02-15T07:28:05;33.17;;;14.77;;
23416;SDS011;11881;42.432;25.632;2024-02-15T07:30:30;38.90;;;13.23;;
23416;SDS011;11881;42.432;25.632;2024-02-15T07:32:56;36.67;;;13.53;;
23416;SDS011;11881;42.432;25.632;2024-02-15T07:35:22;30.90;;;12.53;;
23416;SDS011;11881;42.432;25.632;2024-02-15T07:37:53;26.17;;;12.43;;
23416;SDS011;11881;42.432;25.632;2024-02-15T07:40:24;36.97;;;14.57;;
23416;SDS011;11881;42.432;25.632;2024-02-15T07:42:54;28.47;;;11.53;;
23416;SDS011;11881;42.432;25.632;2024-02-15T07:45:21;25.47;;;11.17;;
23416;SDS011;11881;42.432;25.632;2024-02-15T07:47:47;23.63;;;11.53;;
23416;SDS011;11881;42.432;25.632;2024-02-15T07:50:17;19.20;;;10.13;;
23416;SDS011;11881;42.432;25.632;2024-02-15T07:52:48;28.67;;;13.83;;
23416;SDS011;11881;42.432;25.632;2024-02-15T07:55:14;21.47;;;11.10;;
23416;SDS011;11881;42.432;25.632;2024-02-15T07:57:39;17.40;;;9.83;;
23416;SDS011;11881;42.432;25.632;2024-02-15T08:00:05;21.13;;;10.13;;
23416;SDS011;11881;42.432;25.632;2024-02-15T08:02:36;18.20;;;9.87;;
23416;SDS011;11881;42.432;25.632;2024-02-15T08:05:05;19.73;;;9.67;;
23416;SDS011;11881;42.432;25.632;2024-02-15T08:07:35;17.87;;;9.07;;
23416;SDS011;11881;42.432;25.632;2024-02-15T08:10:06;16.87;;;8.67;;
23416;SDS011;11881;42.432;25.632;2024-02-15T08:12:44;16.03;;;8.60;;
23416;SDS011;11881;42.432;25.632;2024-02-15T08:15:11;13.27;;;8.00;;
23416;SDS011;11881;42.432;25.632;2024-02-15T08:17:40;18.37;;;8.53;;
23416;SDS011;11881;42.432;25.632;2024-02-15T08:20:08;14.60;;;7.33;;
23416;SDS011;11881;42.432;25.632;2024-02-15T08:22:35;14.13;;;7.93;;
23416;SDS011;11881;42.432;25.632;2024-02-15T08:25:06;7.30;;;4.67;;
23416;SDS011;11881;42.432;25.632;2024-02-15T08:27:31;7.03;;;4.20;;
23416;SDS011;11881;42.432;25.632;2024-02-15T08:29:59;6.87;;;4.30;;
23416;SDS011;11881;42.432;25.632;2024-02-15T08:32:24;7.83;;;5.27;;
23416;SDS011;11881;42.432;25.632;2024-02-15T08:34:50;10.00;;;5.63;;
23416;SDS011;11881;42.432;25.632;2024-02-15T08:37:15;7.57;;;5.50;;
23416;SDS011;11881;42.432;25.632;2024-02-15T08:39:41;8.27;;;4.70;;
23416;SDS011;11881;42.432;25.632;2024-02-15T08:42:09;7.87;;;5.03;;
23416;SDS011;11881;42.432;25.632;2024-02-15T08:44:36;12.47;;;5.47;;
23416;SDS011;11881;42.432;25.632;2024-02-15T08:47:01;10.83;;;4.57;;
23416;SDS011;11881;42.432;25.632;2024-02-15T08:49:27;4.97;;;3.60;;
23416;SDS011;11881;42.432;25.632;2024-02-15T08:51:55;6.60;;;3.63;;
23416;SDS011;11881;42.432;25.632;2024-02-15T08:54:21;4.27;;;3.20;;
23416;SDS011;11881;42.432;25.632;2024-02-15T08:56:46;4.33;;;2.97;;
23416;SDS011;11881;42.432;25.632;2024-02-15T08:59:12;3.93;;;3.37;;
23416;SDS011;11881;42.432;25.632;2024-02-15T09:01:40;5.67;;;3.40;;
23416;SDS011;11881;42.432;25.632;2024-02-15T09:04:06;4.67;;;3.43;;
23416;SDS011;11881;42.432;25.632;2024-02-15T09:06:31;10.00;;;3.10;;
23416;SDS011;11881;42.432;25.632;2024-02-15T09:08:57;4.63;;;3.40;;
23416;SDS011;11881;42.432;25.632;2024-02-15T09:11:22;6.07;;;3.33;;
23416;SDS011;11881;42.432;25.632;2024-02-15T09:13:53;5.50;;;3.20;;
23416;SDS011;11881;42.432;25.632;2024-02-15T09:16:20;5.70;;;3.10;;
23416;SDS011;11881;42.432;25.632;2024-02-15T09:18:46;6.73;;;2.97;;
23416;SDS011;11881;42.432;25.632;2024-02-15T09:21:12;4.17;;;3.73;;
23416;SDS011;11881;42.432;25.632;2024-02-15T09:23:38;5.27;;;3.23;;
23416;SDS011;11881;42.432;25.632;2024-02-15T09:26:04;4.37;;;3.30;;
23416;SDS011;11881;42.432;25.632;2024-02-15T09:28:29;3.40;;;3.10;;
23416;SDS011;11881;42.432;25.632;2024-02-15T09:30:56;6.27;;;3.30;;
23416;SDS011;11881;42.432;25.632;2024-02-15T09:33:24;7.63;;;3.10;;
23416;SDS011;11881;42.432;25.632;2024-02-15T09:35:51;3.63;;;2.80;;
23416;SDS011;11881;42.432;25.632;2024-02-15T09:38:16;5.57;;;3.07;;
23416;SDS011;11881;42.432;25.632;2024-02-15T09:40:43;5.70;;;3.03;;
23416;SDS011;11881;42.432;25.632;2024-02-15T09:43:09;4.97;;;3.10;;
23416;SDS011;11881;42.432;25.632;2024-02-15T09:45:38;4.47;;;2.80;;
23416;SDS011;11881;42.432;25.632;2024-02-15T09:48:05;3.83;;;2.97;;
23416;SDS011;11881;42.432;25.632;2024-02-15T09:50:34;3.60;;;2.97;;
23416;SDS011;11881;42.432;25.632;2024-02-15T09:53:00;2.73;;;2.50;;
23416;SDS011;11881;42.432;25.632;2024-02-15T09:55:31;3.40;;;3.00;;
23416;SDS011;11881;42.432;25.632;2024-02-15T09:57:59;3.50;;;2.87;;
23416;SDS011;11881;42.432;25.632;2024-02-15T10:00:26;5.40;;;3.10;;
23416;SDS011;11881;42.432;25.632;2024-02-15T10:02:52;6.10;;;3.50;;
23416;SDS011;11881;42.432;25.632;2024-02-15T10:05:18;2.67;;;2.37;;
23416;SDS011;11881;42.432;25.632;2024-02-15T10:07:45;4.13;;;2.33;;
23416;SDS011;11881;42.432;25.632;2024-02-15T10:12:48;4.67;;;2.80;;
23416;SDS011;11881;42.432;25.632;2024-02-15T10:15:35;7.00;;;2.80;;
23416;SDS011;11881;42.432;25.632;2024-02-15T10:18:06;4.17;;;2.60;;
23416;SDS011;11881;42.432;25.632;2024-02-15T10:20:34;5.20;;;2.40;;
23416;SDS011;11881;42.432;25.632;2024-02-15T10:25:32;7.23;;;2.37;;
23416;SDS011;11881;42.432;25.632;2024-02-15T10:30:32;4.30;;;2.07;;
23416;SDS011;11881;42.432;25.632;2024-02-15T10:32:59;4.33;;;2.20;;
23416;SDS011;11881;42.432;25.632;2024-02-15T10:35:24;5.83;;;3.23;;
23416;SDS011;11881;42.432;25.632;2024-02-15T10:37:50;4.17;;;3.47;;
23416;SDS011;11881;42.432;25.632;2024-02-15T10:40:20;4.60;;;2.90;;
23416;SDS011;11881;42.432;25.632;2024-02-15T10:42:50;4.13;;;3.13;;
23416;SDS011;11881;42.432;25.632;2024-02-15T10:45:16;3.33;;;2.77;;
23416;SDS011;11881;42.432;25.632;2024-02-15T10:47:45;2.43;;;2.23;;
23416;SDS011;11881;42.432;25.632;2024-02-15T10:50:14;2.67;;;2.40;;
23416;SDS011;11881;42.432;25.632;2024-02-15T10:52:48;2.50;;;1.93;;
23416;SDS011;11881;42.432;25.632;2024-02-15T10:58:23;3.80;;;2.30;;
23416;SDS011;11881;42.432;25.632;2024-02-15T11:00:57;3.00;;;2.17;;
23416;SDS011;11881;42.432;25.632;2024-02-15T11:03:29;2.93;;;2.03;;
23416;SDS011;11881;42.432;25.632;2024-02-15T11:06:01;4.27;;;2.07;;
23416;SDS011;11881;42.432;25.632;2024-02-15T11:08:29;3.43;;;2.00;;
23416;SDS011;11881;42.432;25.632;2024-02-15T11:10:55;3.93;;;2.37;;
23416;SDS011;11881;42.432;25.632;2024-02-15T11:13:24;3.17;;;2.30;;
23416;SDS011;11881;42.432;25.632;2024-02-15T11:15:49;2.73;;;2.10;;
23416;SDS011;11881;42.432;25.632;2024-02-15T11:21:06;2.63;;;2.30;;
23416;SDS011;11881;42.432;25.632;2024-02-15T11:23:32;3.53;;;2.47;;
23416;SDS011;11881;42.432;25.632;2024-02-15T11:25:57;4.00;;;2.27;;
23416;SDS011;11881;42.432;25.632;2024-02-15T11:30:53;4.30;;;2.30;;
23416;SDS011;11881;42.432;25.632;2024-02-15T11:36:13;10.60;;;2.23;;
23416;SDS011;11881;42.432;25.632;2024-02-15T11:38:39;3.30;;;2.20;;
23416;SDS011;11881;42.432;25.632;2024-02-15T11:41:09;3.67;;;2.07;;
23416;SDS011;11881;42.432;25.632;2024-02-15T11:43:48;2.97;;;2.10;;
23416;SDS011;11881;42.432;25.632;2024-02-15T11:46:23;3.43;;;2.33;;
23416;SDS011;11881;42.432;25.632;2024-02-15T11:48:50;2.27;;;2.07;;
23416;SDS011;11881;42.432;25.632;2024-02-15T11:51:38;4.13;;;2.30;;
23416;SDS011;11881;42.432;25.632;2024-02-15T11:54:10;4.73;;;2.63;;
23416;SDS011;11881;42.432;25.632;2024-02-15T11:56:55;4.57;;;2.63;;
23416;SDS011;11881;42.432;25.632;2024-02-15T11:59:42;3.60;;;2.50;;
23416;SDS011;11881;42.432;25.632;2024-02-15T12:02:40;3.47;;;2.13;;
23416;SDS011;11881;42.432;25.632;2024-02-15T12:05:24;3.20;;;2.30;;
23416;SDS011;11881;42.432;25.632;2024-02-15T12:08:09;3.33;;;2.40;;
23416;SDS011;11881;42.432;25.632;2024-02-15T12:10:58;3.77;;;2.20;;
23416;SDS011;11881;42.432;25.632;2024-02-15T12:13:42;4.40;;;2.27;;
23416;SDS011;11881;42.432;25.632;2024-02-15T12:16:26;2.23;;;2.00;;
23416;SDS011;11881;42.432;25.632;2024-02-15T12:19:10;3.53;;;2.60;;
23416;SDS011;11881;42.432;25.632;2024-02-15T12:21:35;2.43;;;2.00;;
23416;SDS011;11881;42.432;25.632;2024-02-15T12:24:06;8.43;;;2.33;;
23416;SDS011;11881;42.432;25.632;2024-02-15T12:26:32;6.57;;;2.40;;
23416;SDS011;11881;42.432;25.632;2024-02-15T12:28:59;6.17;;;2.30;;
23416;SDS011;11881;42.432;25.632;2024-02-15T12:31:26;3.83;;;2.40;;
23416;SDS011;11881;42.432;25.632;2024-02-15T12:34:02;3.70;;;2.63;;
23416;SDS011;11881;42.432;25.632;2024-02-15T12:36:32;2.57;;;1.97;;
23416;SDS011;11881;42.432;25.632;2024-02-15T12:38:59;3.67;;;2.07;;
23416;SDS011;11881;42.432;25.632;2024-02-15T12:41:26;4.10;;;2.33;;
23416;SDS011;11881;42.432;25.632;2024-02-15T12:43:54;3.27;;;2.30;;
23416;SDS011;11881;42.432;25.632;2024-02-15T12:46:22;3.67;;;2.20;;
23416;SDS011;11881;42.432;25.632;2024-02-15T12:48:48;4.20;;;2.23;;
23416;SDS011;11881;42.432;25.632;2024-02-15T12:51:15;5.60;;;2.60;;
23416;SDS011;11881;42.432;25.632;2024-02-15T12:53:41;2.50;;;2.30;;
23416;SDS011;11881;42.432;25.632;2024-02-15T12:56:08;2.77;;;2.27;;
23416;SDS011;11881;42.432;25.632;2024-02-15T12:58:39;9.43;;;2.30;;
23416;SDS011;11881;42.432;25.632;2024-02-15T13:01:05;4.13;;;2.10;;
23416;SDS011;11881;42.432;25.632;2024-02-15T13:03:31;2.97;;;2.07;;
23416;SDS011;11881;42.432;25.632;2024-02-15T13:05:56;3.13;;;2.00;;
23416;SDS011;11881;42.432;25.632;2024-02-15T13:08:22;3.63;;;2.30;;
23416;SDS011;11881;42.432;25.632;2024-02-15T13:10:47;7.80;;;2.47;;
23416;SDS011;11881;42.432;25.632;2024-02-15T13:13:13;5.00;;;2.37;;
23416;SDS011;11881;42.432;25.632;2024-02-15T13:15:40;2.80;;;2.07;;
23416;SDS011;11881;42.432;25.632;2024-02-15T13:18:05;4.03;;;2.23;;
23416;SDS011;11881;42.432;25.632;2024-02-15T13:20:34;2.33;;;1.63;;
23416;SDS011;11881;42.432;25.632;2024-02-15T13:23:05;3.87;;;2.27;;
23416;SDS011;11881;42.432;25.632;2024-02-15T13:25:40;5.10;;;2.17;;
23416;SDS011;11881;42.432;25.632;2024-02-15T13:28:08;3.40;;;1.90;;
23416;SDS011;11881;42.432;25.632;2024-02-15T13:30:36;2.87;;;1.87;;
23416;SDS011;11881;42.432;25.632;2024-02-15T13:33:02;4.83;;;2.40;;
23416;SDS011;11881;42.432;25.632;2024-02-15T13:35:27;3.40;;;2.00;;
23416;SDS011;11881;42.432;25.632;2024-02-15T13:37:54;2.23;;;2.00;;
23416;SDS011;11881;42.432;25.632;2024-02-15T13:40:23;3.53;;;2.00;;
23416;SDS011;11881;42.432;25.632;2024-02-15T13:42:51;3.17;;;1.93;;
23416;SDS011;11881;42.432;25.632;2024-02-15T13:45:21;3.40;;;2.33;;
23416;SDS011;11881;42.432;25.632;2024-02-15T13:47:58;4.17;;;2.13;;
23416;SDS011;11881;42.432;25.632;2024-02-15T13:50:24;3.70;;;1.77;;
23416;SDS011;11881;42.432;25.632;2024-02-15T13:52:49;4.90;;;2.00;;
23416;SDS011;11881;42.432;25.632;2024-02-15T13:55:18;2.70;;;2.00;;
23416;SDS011;11881;42.432;25.632;2024-02-15T13:57:46;3.60;;;1.90;;
23416;SDS011;11881;42.432;25.632;2024-02-15T14:00:13;3.20;;;2.30;;
23416;SDS011;11881;42.432;25.632;2024-02-15T14:02:49;4.37;;;2.30;;
23416;SDS011;11881;42.432;25.632;2024-02-15T14:05:19;3.57;;;2.10;;
23416;SDS011;11881;42.432;25.632;2024-02-15T14:07:53;5.10;;;2.67;;
23416;SDS011;11881;42.432;25.632;2024-02-15T14:10:21;5.97;;;2.80;;
23416;SDS011;11881;42.432;25.632;2024-02-15T14:12:47;5.27;;;3.27;;
23416;SDS011;11881;42.432;25.632;2024-02-15T14:15:17;3.43;;;2.50;;
23416;SDS011;11881;42.432;25.632;2024-02-15T14:17:43;4.07;;;2.43;;
23416;SDS011;11881;42.432;25.632;2024-02-15T14:20:09;2.70;;;2.40;;
23416;SDS011;11881;42.432;25.632;2024-02-15T14:22:48;5.03;;;2.40;;
23416;SDS011;11881;42.432;25.632;2024-02-15T14:25:20;4.67;;;2.47;;
23416;SDS011;11881;42.432;25.632;2024-02-15T14:27:46;6.00;;;3.13;;
23416;SDS011;11881;42.432;25.632;2024-02-15T14:30:15;3.00;;;2.30;;
23416;SDS011;11881;42.432;25.632;2024-02-15T14:32:59;5.50;;;2.73;;
23416;SDS011;11881;42.432;25.632;2024-02-15T14:35:35;5.23;;;2.90;;
23416;SDS011;11881;42.432;25.632;2024-02-15T14:38:07;3.90;;;2.50;;
23416;SDS011;11881;42.432;25.632;2024-02-15T14:40:36;4.23;;;2.60;;
23416;SDS011;11881;42.432;25.632;2024-02-15T14:43:02;5.20;;;2.63;;
23416;SDS011;11881;42.432;25.632;2024-02-15T14:45:30;5.07;;;2.70;;
23416;SDS011;11881;42.432;25.632;2024-02-15T14:47:57;2.43;;;2.23;;
23416;SDS011;11881;42.432;25.632;2024-02-15T14:50:23;4.63;;;2.60;;
23416;SDS011;11881;42.432;25.632;2024-02-15T14:52:51;3.37;;;2.47;;
23416;SDS011;11881;42.432;25.632;2024-02-15T14:55:18;4.03;;;2.37;;